createdAt,value
2023-05-22T00:00:22.102Z,19.30
2023-05-22T00:02:50.964Z,19.30
2023-05-22T00:05:20.605Z,19.30
2023-05-22T00:07:49.083Z,19.30
2023-05-22T00:10:17.526Z,19.30
2023-05-22T00:12:45.906Z,19.30
2023-05-22T00:15:14.315Z,19.20
2023-05-22T00:17:44.531Z,19.20
2023-05-22T00:20:13.756Z,19.20
2023-05-22T00:22:42.331Z,19.20
2023-05-22T00:25:12.558Z,19.20
2023-05-22T00:27:40.960Z,19.10
2023-05-22T00:30:10.836Z,19.10
2023-05-22T00:32:39.324Z,19.10
2023-05-22T00:35:11.168Z,19.10
2023-05-22T00:37:39.559Z,19.00
2023-05-22T00:40:10.396Z,19.00
2023-05-22T00:42:38.714Z,19.00
2023-05-22T00:45:08.440Z,18.90
2023-05-22T00:47:37.986Z,18.90
2023-05-22T00:50:08.926Z,18.80
2023-05-22T00:52:39.248Z,18.80
2023-05-22T00:55:09.891Z,18.80
2023-05-22T00:57:40.326Z,18.70
2023-05-22T01:00:11.771Z,18.70
2023-05-22T01:02:42.986Z,18.60
2023-05-22T01:05:18.324Z,18.60
2023-05-22T01:07:46.872Z,18.60
2023-05-22T01:10:15.196Z,18.50
2023-05-22T01:12:49.548Z,18.50
2023-05-22T01:15:23.396Z,18.50
2023-05-22T01:17:57.552Z,18.40
2023-05-22T01:20:32.282Z,18.40
2023-05-22T01:23:37.371Z,18.30
2023-05-22T01:26:46.214Z,18.30
2023-05-22T01:29:29.888Z,18.30
2023-05-22T01:32:00.378Z,18.20
2023-05-22T01:34:28.722Z,18.20
2023-05-22T01:36:57.063Z,18.10
2023-05-22T01:39:25.509Z,18.10
2023-05-22T01:41:53.869Z,18.00
2023-05-22T01:44:23.530Z,18.00
2023-05-22T01:46:51.883Z,18.00
2023-05-22T01:49:21.688Z,18.00
2023-05-22T01:51:53.901Z,18.00
2023-05-22T01:54:26.830Z,17.90
2023-05-22T01:56:58.214Z,17.80
2023-05-22T01:59:31.521Z,17.80
2023-05-22T02:02:04.250Z,17.70
2023-05-22T02:04:34.270Z,17.60
2023-05-22T02:07:02.624Z,17.50
2023-05-22T02:09:32.061Z,17.50
2023-05-22T02:12:01.319Z,17.50
2023-05-22T02:14:30.122Z,17.50
2023-05-22T02:16:58.616Z,17.40
2023-05-22T02:19:27.019Z,17.40
2023-05-22T02:21:56.890Z,17.30
2023-05-22T02:24:25.544Z,17.30
2023-05-22T02:26:53.916Z,17.30
2023-05-22T02:29:22.189Z,17.20
2023-05-22T02:31:50.690Z,17.20
2023-05-22T02:37:06.670Z,17.10
2023-05-22T02:39:34.978Z,17.10
2023-05-22T02:42:03.630Z,17.00
2023-05-22T02:44:31.994Z,17.00
2023-05-22T02:47:00.375Z,17.00
2023-05-22T02:49:28.723Z,16.90
2023-05-22T02:51:57.080Z,16.90
2023-05-22T02:54:26.867Z,16.90
2023-05-22T02:56:55.235Z,16.80
2023-05-22T02:59:23.607Z,16.80
2023-05-22T03:01:54.491Z,16.80
2023-05-22T03:04:22.924Z,16.70
2023-05-22T03:06:51.227Z,16.70
2023-05-22T03:09:20.289Z,16.70
2023-05-22T03:11:50.055Z,16.60
2023-05-22T03:14:18.401Z,16.60
2023-05-22T03:16:46.843Z,16.60
2023-05-22T03:19:16.044Z,16.60
2023-05-22T03:21:44.642Z,16.60
2023-05-22T03:24:13.618Z,16.50
2023-05-22T03:26:41.907Z,16.50
2023-05-22T03:29:11.646Z,16.50
2023-05-22T03:31:40.225Z,16.50
2023-05-22T03:34:08.658Z,16.50
2023-05-22T03:36:37.145Z,16.50
2023-05-22T03:39:05.626Z,16.50
2023-05-22T03:41:33.973Z,16.50
2023-05-22T03:44:03.137Z,16.50
2023-05-22T03:46:32.846Z,16.50
2023-05-22T03:49:01.226Z,16.50
2023-05-22T03:51:29.566Z,16.50
2023-05-22T03:53:57.912Z,16.50
2023-05-22T03:56:26.605Z,16.50
2023-05-22T03:58:54.890Z,16.50
2023-05-22T04:01:23.632Z,16.50
2023-05-22T04:03:53.414Z,16.50
2023-05-22T04:06:22.034Z,16.50
2023-05-22T04:08:50.353Z,16.50
2023-05-22T04:11:19.763Z,16.60
2023-05-22T04:13:50.750Z,16.60
2023-05-22T04:16:19.198Z,16.60
2023-05-22T04:18:47.574Z,16.70
2023-05-22T04:21:17.546Z,16.70
2023-05-22T04:23:45.910Z,16.80
2023-05-22T04:26:14.305Z,16.80
2023-05-22T04:28:46.234Z,16.90
2023-05-22T04:31:14.647Z,16.90
2023-05-22T04:33:44.632Z,17.00
2023-05-22T04:36:12.997Z,17.00
2023-05-22T04:38:44.847Z,17.10
2023-05-22T04:41:14.309Z,17.20
2023-05-22T04:43:42.823Z,17.30
2023-05-22T04:46:11.200Z,17.30
2023-05-22T04:48:40.219Z,17.40
2023-05-22T04:51:09.547Z,17.50
2023-05-22T04:53:38.761Z,17.60
2023-05-22T04:56:09.155Z,17.70
2023-05-22T04:58:38.197Z,17.70
2023-05-22T05:01:06.922Z,17.80
2023-05-22T05:03:36.184Z,17.90
2023-05-22T05:06:05.002Z,17.90
2023-05-22T05:08:33.344Z,18.00
2023-05-22T05:11:01.694Z,18.10
2023-05-22T05:13:31.502Z,18.10
2023-05-22T05:16:00.856Z,18.10
2023-05-22T05:18:29.217Z,18.20
2023-05-22T05:20:57.691Z,18.20
2023-05-22T05:23:26.265Z,18.20
2023-05-22T05:25:54.588Z,18.20
2023-05-22T05:28:22.952Z,18.30
2023-05-22T05:30:52.926Z,18.30
2023-05-22T05:33:21.345Z,18.40
2023-05-22T05:35:52.644Z,18.50
2023-05-22T05:38:21.122Z,18.50
2023-05-22T05:40:50.062Z,18.50
2023-05-22T05:43:18.426Z,18.40
2023-05-22T05:45:46.752Z,18.40
2023-05-22T05:48:16.697Z,18.40
2023-05-22T05:50:45.092Z,18.40
2023-05-22T05:53:13.665Z,18.40
2023-05-22T05:55:41.980Z,18.40
2023-05-22T05:58:10.464Z,18.40
2023-05-22T06:00:39.322Z,18.40
2023-05-22T06:03:07.900Z,18.40
2023-05-22T06:05:37.717Z,18.50
2023-05-22T06:08:08.646Z,18.50
2023-05-22T06:10:37.430Z,18.50
2023-05-22T06:13:06.414Z,18.50
2023-05-22T06:15:34.908Z,18.60
2023-05-22T06:18:03.403Z,18.60
2023-05-22T06:20:31.922Z,18.60
2023-05-22T06:23:01.698Z,18.70
2023-05-22T06:25:31.045Z,18.80
2023-05-22T06:27:59.396Z,18.90
2023-05-22T06:30:39.424Z,19.10
2023-05-22T06:33:09.016Z,19.20
2023-05-22T06:35:37.512Z,19.20
2023-05-22T06:38:07.238Z,19.30
2023-05-22T06:40:35.521Z,19.40
2023-05-22T06:43:03.881Z,19.40
2023-05-22T06:45:32.265Z,19.50
2023-05-22T06:48:00.842Z,19.50
2023-05-22T06:50:29.297Z,19.60
2023-05-22T06:52:57.735Z,19.70
2023-05-22T06:55:27.502Z,19.70
2023-05-22T06:57:55.885Z,19.80
2023-05-22T07:00:24.402Z,19.90
2023-05-22T07:02:52.890Z,20.00
2023-05-22T07:05:21.392Z,20.10
2023-05-22T07:07:49.779Z,20.20
2023-05-22T07:10:18.207Z,20.30
2023-05-22T07:12:47.875Z,20.40
2023-05-22T07:15:16.504Z,20.50
2023-05-22T07:17:44.936Z,20.60
2023-05-22T07:20:15.971Z,20.80
2023-05-22T07:22:44.340Z,20.90
2023-05-22T07:25:12.822Z,21.10
2023-05-22T07:27:41.199Z,21.20
2023-05-22T07:30:12.574Z,21.30
2023-05-22T07:32:41.247Z,21.40
2023-05-22T07:35:11.691Z,21.60
2023-05-22T07:37:40.004Z,21.60
2023-05-22T07:40:11.150Z,21.70
2023-05-22T07:42:39.515Z,21.80
2023-05-22T07:45:11.050Z,21.90
2023-05-22T07:47:39.504Z,22.00
2023-05-22T07:50:09.937Z,22.10
2023-05-22T07:52:38.327Z,22.20
2023-05-22T07:55:08.665Z,22.20
2023-05-22T07:57:37.132Z,22.30
2023-05-22T08:00:14.022Z,22.50
2023-05-22T08:02:44.142Z,22.60
2023-05-22T08:05:13.624Z,22.80
2023-05-22T08:07:42.253Z,22.90
2023-05-22T08:10:19.483Z,23.00
2023-05-22T08:12:47.831Z,23.10
2023-05-22T08:15:16.217Z,23.10
2023-05-22T08:17:45.986Z,23.10
2023-05-22T08:20:14.667Z,23.10
2023-05-22T08:22:43.132Z,23.10
2023-05-22T08:25:11.668Z,23.20
2023-05-22T08:27:39.998Z,23.30
2023-05-22T08:30:09.767Z,23.50
2023-05-22T08:32:38.190Z,23.60
2023-05-22T08:35:09.282Z,23.80
2023-05-22T08:37:37.823Z,24.00
2023-05-22T08:40:08.536Z,24.10
2023-05-22T08:42:36.984Z,24.30
2023-05-22T08:45:07.091Z,24.50
2023-05-22T08:47:36.654Z,24.60
2023-05-22T08:50:07.823Z,24.70
2023-05-22T08:52:39.834Z,24.80
2023-05-22T08:55:09.749Z,24.90
2023-05-22T08:57:38.122Z,24.90
2023-05-22T09:00:09.392Z,24.90
2023-05-22T09:02:37.966Z,24.90
2023-05-22T09:05:09.813Z,25.00
2023-05-22T09:07:40.776Z,25.00
2023-05-22T09:10:09.942Z,25.10
2023-05-22T09:12:38.251Z,25.20
2023-05-22T09:15:11.143Z,25.20
2023-05-22T09:17:41.608Z,25.20
2023-05-22T09:20:15.769Z,25.30
2023-05-22T09:22:44.197Z,25.50
2023-05-22T09:25:12.575Z,25.60
2023-05-22T09:27:40.903Z,25.70
2023-05-22T09:30:10.435Z,25.80
2023-05-22T09:32:38.755Z,25.90
2023-05-22T09:35:08.170Z,26.00
2023-05-22T09:37:38.403Z,26.00
2023-05-22T09:40:08.140Z,26.00
2023-05-22T09:42:36.602Z,26.10
2023-05-22T09:45:05.930Z,26.20
2023-05-22T09:47:35.227Z,26.20
2023-05-22T09:50:07.205Z,26.30
2023-05-22T09:52:37.730Z,26.30
2023-05-22T09:55:08.657Z,26.30
2023-05-22T09:57:42.909Z,26.30
2023-05-22T10:00:18.022Z,26.30
2023-05-22T10:02:47.140Z,26.20
2023-05-22T10:05:21.705Z,26.20
2023-05-22T10:07:52.895Z,26.20
2023-05-22T10:10:22.973Z,26.20
2023-05-22T10:12:54.399Z,26.20
2023-05-22T10:15:23.094Z,26.30
2023-05-22T10:17:51.572Z,26.40
2023-05-22T10:20:20.651Z,26.50
2023-05-22T10:22:49.953Z,26.70
2023-05-22T10:25:19.813Z,26.80
2023-05-22T10:27:48.149Z,26.90
2023-05-22T10:30:24.145Z,26.90
2023-05-22T10:32:57.153Z,27.00
2023-05-22T10:35:30.430Z,27.00
2023-05-22T10:38:08.444Z,27.00
2023-05-22T10:40:38.339Z,27.00
2023-05-22T10:43:06.671Z,27.00
2023-05-22T10:45:36.585Z,27.10
2023-05-22T10:48:06.592Z,27.20
2023-05-22T10:50:35.083Z,27.20
2023-05-22T10:53:24.487Z,27.40
2023-05-22T10:55:55.253Z,27.60
2023-05-22T10:58:28.450Z,27.60
2023-05-22T11:01:17.948Z,27.70
2023-05-22T11:03:57.287Z,27.70
2023-05-22T11:06:33.872Z,27.70
2023-05-22T11:09:17.563Z,27.60
2023-05-22T11:11:47.641Z,27.60
2023-05-22T11:14:18.181Z,27.60
2023-05-22T11:16:46.630Z,27.60
2023-05-22T11:19:23.371Z,27.70
2023-05-22T11:21:52.573Z,27.70
2023-05-22T11:24:20.975Z,27.70
2023-05-22T11:27:04.431Z,27.60
2023-05-22T11:29:32.874Z,27.60
2023-05-22T11:32:01.187Z,27.50
2023-05-22T11:34:29.532Z,27.30
2023-05-22T11:37:00.963Z,27.30
2023-05-22T11:39:29.326Z,27.20
2023-05-22T11:41:57.979Z,27.20
2023-05-22T11:44:29.988Z,27.20
2023-05-22T11:46:58.370Z,27.20
2023-05-22T11:49:26.736Z,27.20
2023-05-22T11:51:55.096Z,27.20
2023-05-22T11:54:24.138Z,27.20
2023-05-22T11:56:52.506Z,27.20
2023-05-22T11:59:22.922Z,27.20
2023-05-22T12:01:53.286Z,27.20
2023-05-22T12:04:21.697Z,27.10
2023-05-22T12:06:50.171Z,27.10
2023-05-22T12:09:18.672Z,27.00
2023-05-22T12:11:47.838Z,27.00
2023-05-22T12:14:16.268Z,27.00
2023-05-22T12:16:45.225Z,27.10
2023-05-22T12:19:15.675Z,27.10
2023-05-22T12:21:45.372Z,27.10
2023-05-22T12:24:13.718Z,27.20
2023-05-22T12:26:42.145Z,27.40
2023-05-22T12:29:10.490Z,27.50
2023-05-22T12:31:39.151Z,27.60
2023-05-22T12:34:08.734Z,27.60
2023-05-22T12:36:40.259Z,27.60
2023-05-22T12:39:10.250Z,27.50
2023-05-22T12:41:38.662Z,27.50
2023-05-22T12:44:07.079Z,27.40
2023-05-22T12:46:35.499Z,27.50
2023-05-22T12:49:03.985Z,27.50
2023-05-22T12:51:33.691Z,27.60
2023-05-22T12:54:03.656Z,27.80
2023-05-22T12:56:32.350Z,28.00
2023-05-22T12:59:00.840Z,28.10
2023-05-22T13:01:29.320Z,28.20
2023-05-22T13:03:57.655Z,28.10
2023-05-22T13:06:27.954Z,28.00
2023-05-22T13:08:58.664Z,27.80
2023-05-22T13:11:28.376Z,27.70
2023-05-22T13:13:56.791Z,27.60
2023-05-22T13:16:25.244Z,27.60
2023-05-22T13:18:53.729Z,27.50
2023-05-22T13:21:23.626Z,27.50
2023-05-22T13:23:53.494Z,27.40
2023-05-22T13:26:22.811Z,27.40
2023-05-22T13:28:52.553Z,27.50
2023-05-22T13:31:21.315Z,27.60
2023-05-22T13:33:49.706Z,27.70
2023-05-22T13:36:18.866Z,27.80
2023-05-22T13:38:47.649Z,27.80
2023-05-22T13:41:17.671Z,27.80
2023-05-22T13:43:46.538Z,27.90
2023-05-22T13:46:17.686Z,28.00
2023-05-22T13:48:46.156Z,28.10
2023-05-22T13:51:14.826Z,28.20
2023-05-22T13:53:43.152Z,28.30
2023-05-22T13:56:11.477Z,28.30
2023-05-22T13:58:39.833Z,28.40
2023-05-22T14:01:08.233Z,28.40
2023-05-22T14:03:38.014Z,28.40
2023-05-22T14:06:06.970Z,28.50
2023-05-22T14:08:35.369Z,28.50
2023-05-22T14:11:03.838Z,28.40
2023-05-22T14:13:32.508Z,28.40
2023-05-22T14:16:00.903Z,28.30
2023-05-22T14:18:29.370Z,28.30
2023-05-22T14:20:59.160Z,28.30
2023-05-22T14:23:27.518Z,28.30
2023-05-22T14:25:55.788Z,28.20
2023-05-22T14:28:24.479Z,28.20
2023-05-22T14:30:53.017Z,28.10
2023-05-22T14:33:21.427Z,28.00
2023-05-22T14:35:51.202Z,28.00
2023-05-22T14:38:20.883Z,28.00
2023-05-22T14:40:49.771Z,28.00
2023-05-22T14:43:18.200Z,28.00
2023-05-22T14:45:46.486Z,28.00
2023-05-22T14:48:15.044Z,27.90
2023-05-22T14:50:43.438Z,27.90
2023-05-22T14:53:11.852Z,28.00
2023-05-22T14:55:41.819Z,28.10
2023-05-22T14:58:10.405Z,28.20
2023-05-22T15:00:38.736Z,28.20
2023-05-22T15:03:07.180Z,28.30
2023-05-22T15:05:35.593Z,28.20
2023-05-22T15:08:04.034Z,28.20
2023-05-22T15:10:32.529Z,28.30
2023-05-22T15:13:02.323Z,28.30
2023-05-22T15:15:30.769Z,28.30
2023-05-22T15:18:02.608Z,28.30
2023-05-22T15:20:31.129Z,28.30
2023-05-22T15:23:00.345Z,28.30
2023-05-22T15:25:28.826Z,28.20
2023-05-22T15:27:57.261Z,28.20
2023-05-22T15:30:27.303Z,28.10
2023-05-22T15:32:55.667Z,28.00
2023-05-22T15:35:24.300Z,28.00
2023-05-22T15:37:52.724Z,27.90
2023-05-22T15:40:22.609Z,27.80
2023-05-22T15:42:51.005Z,27.80
2023-05-22T15:45:19.416Z,27.80
2023-05-22T15:47:49.118Z,27.80
2023-05-22T15:50:17.541Z,27.80
2023-05-22T15:52:45.866Z,27.70
2023-05-22T15:55:14.228Z,27.70
2023-05-22T15:57:42.563Z,27.60
2023-05-22T16:00:12.604Z,27.60
2023-05-22T16:02:41.050Z,27.60
2023-05-22T16:05:11.427Z,27.60
2023-05-22T16:07:39.917Z,27.50
2023-05-22T16:10:09.723Z,27.40
2023-05-22T16:12:39.831Z,27.20
2023-05-22T16:15:10.081Z,27.00
2023-05-22T16:17:39.948Z,26.90
2023-05-22T16:20:11.288Z,26.80
2023-05-22T16:25:16.766Z,26.70
2023-05-22T16:27:45.258Z,26.80
2023-05-22T16:30:16.715Z,26.90
2023-05-22T16:32:46.675Z,27.00
2023-05-22T16:35:16.594Z,27.00
2023-05-22T16:37:45.005Z,27.00
2023-05-22T16:40:13.704Z,27.00
2023-05-22T16:42:42.095Z,27.00
2023-05-22T16:45:11.047Z,27.00
2023-05-22T16:47:39.752Z,26.90
2023-05-22T16:50:09.693Z,26.80
2023-05-22T16:52:39.418Z,26.70
2023-05-22T16:55:09.642Z,26.70
2023-05-22T16:57:37.989Z,26.60
2023-05-22T17:00:10.907Z,26.50
2023-05-22T17:02:39.545Z,26.40
2023-05-22T17:05:09.088Z,26.40
2023-05-22T17:07:38.871Z,26.30
2023-05-22T17:10:08.683Z,26.20
2023-05-22T17:12:37.029Z,26.10
2023-05-22T17:15:06.606Z,26.00
2023-05-22T17:17:35.018Z,25.90
2023-05-22T17:20:06.056Z,25.90
2023-05-22T17:22:36.059Z,25.90
2023-05-22T17:25:06.861Z,25.80
2023-05-22T17:27:36.502Z,25.80
2023-05-22T17:30:06.899Z,25.90
2023-05-22T17:32:35.557Z,25.80
2023-05-22T17:35:06.017Z,25.80
2023-05-22T17:37:35.314Z,25.80
2023-05-22T17:40:05.829Z,25.70
2023-05-22T17:42:34.218Z,25.70
2023-05-22T17:45:02.651Z,25.60
2023-05-22T17:47:31.046Z,25.60
2023-05-22T17:49:59.504Z,25.50
2023-05-22T17:52:27.898Z,25.40
2023-05-22T17:54:56.934Z,25.40
2023-05-22T17:57:26.700Z,25.30
2023-05-22T17:59:55.073Z,25.30
2023-05-22T18:02:23.546Z,25.20
2023-05-22T18:04:52.026Z,25.10
2023-05-22T18:07:28.582Z,25.00
2023-05-22T18:09:57.141Z,24.90
2023-05-22T18:12:31.747Z,24.80
2023-05-22T18:15:00.769Z,24.70
2023-05-22T18:17:29.163Z,24.70
2023-05-22T18:19:57.537Z,24.60
2023-05-22T18:22:27.303Z,24.50
2023-05-22T18:24:55.644Z,24.40
2023-05-22T18:27:24.070Z,24.30
2023-05-22T18:29:52.535Z,24.20
2023-05-22T18:32:20.955Z,24.00
2023-05-22T18:34:49.603Z,23.90
2023-05-22T18:37:18.898Z,23.80
2023-05-22T18:39:48.718Z,23.60
2023-05-22T18:42:17.115Z,23.50
2023-05-22T18:44:46.884Z,23.30
2023-05-22T18:47:17.201Z,23.20
2023-05-22T18:49:45.587Z,23.10
2023-05-22T18:52:14.022Z,23.00
2023-05-22T18:54:42.458Z,22.90
2023-05-22T18:57:12.925Z,22.80
2023-05-22T18:59:42.312Z,22.70
2023-05-22T19:02:10.888Z,22.60
2023-05-22T19:04:39.437Z,22.50
2023-05-22T19:07:07.881Z,22.40
2023-05-22T19:09:36.393Z,22.30
2023-05-22T19:12:04.905Z,22.10
2023-05-22T19:14:34.655Z,22.00
2023-05-22T19:17:03.096Z,21.90
2023-05-22T19:19:31.690Z,21.80
2023-05-22T19:22:00.129Z,21.80
2023-05-22T19:24:28.667Z,21.70
2023-05-22T19:26:57.192Z,21.60
2023-05-22T19:29:25.520Z,21.50
2023-05-22T19:31:55.340Z,21.50
2023-05-22T19:34:23.712Z,21.40
2023-05-22T19:36:57.591Z,21.30
2023-05-22T19:39:26.071Z,21.30
2023-05-22T19:41:54.492Z,21.20
2023-05-22T19:44:22.951Z,21.10
2023-05-22T19:46:51.476Z,21.00
2023-05-22T19:49:21.341Z,21.00
2023-05-22T19:51:49.712Z,20.90
2023-05-22T19:54:18.135Z,20.80
2023-05-22T19:56:46.533Z,20.80
2023-05-22T19:59:14.914Z,20.70
2023-05-22T20:01:43.366Z,20.70
2023-05-22T20:04:11.845Z,20.60
2023-05-22T20:06:42.128Z,20.50
2023-05-22T20:09:10.525Z,20.50
2023-05-22T20:11:38.885Z,20.40
2023-05-22T20:14:07.685Z,20.40
2023-05-22T20:16:36.244Z,20.30
2023-05-22T20:19:04.919Z,20.20
2023-05-22T20:21:33.373Z,20.20
2023-05-22T20:24:06.079Z,20.20
2023-05-22T20:26:35.535Z,20.10
2023-05-22T20:29:03.865Z,20.00
2023-05-22T20:31:32.170Z,20.00
2023-05-22T20:34:01.927Z,20.00
2023-05-22T20:36:30.265Z,19.90
2023-05-22T20:38:58.922Z,19.90
2023-05-22T20:41:28.768Z,19.80
2023-05-22T20:43:58.642Z,19.80
2023-05-22T20:46:27.730Z,19.70
2023-05-22T20:48:56.509Z,19.70
2023-05-22T20:51:32.309Z,19.60
2023-05-22T20:54:01.023Z,19.50
2023-05-22T20:56:31.063Z,19.50
2023-05-22T20:58:59.466Z,19.40
2023-05-22T21:01:27.969Z,19.40
2023-05-22T21:03:56.987Z,19.30
2023-05-22T21:06:25.348Z,19.30
2023-05-22T21:08:58.909Z,19.20
2023-05-22T21:11:27.495Z,19.20
2023-05-22T21:13:57.264Z,19.10
2023-05-22T21:16:26.058Z,19.10
2023-05-22T21:18:54.409Z,19.00
2023-05-22T21:21:22.811Z,19.00
2023-05-22T21:23:51.421Z,18.90
2023-05-22T21:26:22.305Z,18.90
2023-05-22T21:28:50.851Z,18.80
2023-05-22T21:31:20.749Z,18.80
2023-05-22T21:33:49.097Z,18.80
2023-05-22T21:36:17.660Z,18.70
2023-05-22T21:38:46.129Z,18.70
2023-05-22T21:41:16.803Z,18.80
2023-05-22T21:43:45.613Z,18.70
2023-05-22T21:46:14.108Z,18.70
2023-05-22T21:48:43.987Z,18.70
2023-05-22T21:51:12.324Z,18.70
2023-05-22T21:53:40.718Z,18.60
2023-05-22T21:56:09.733Z,18.60
2023-05-22T21:58:38.140Z,18.60
2023-05-22T22:01:06.722Z,18.60
2023-05-22T22:03:35.189Z,18.50
2023-05-22T22:06:05.354Z,18.50
2023-05-22T22:08:33.673Z,18.50
2023-05-22T22:11:01.976Z,18.50
2023-05-22T22:13:30.694Z,18.40
2023-05-22T22:15:59.467Z,18.40
2023-05-22T22:18:27.952Z,18.40
2023-05-22T22:20:56.314Z,18.40
2023-05-22T22:23:26.118Z,18.40
2023-05-22T22:25:54.511Z,18.40
2023-05-22T22:28:22.906Z,18.40
2023-05-22T22:30:54.843Z,18.30
2023-05-22T22:33:23.575Z,18.40
2023-05-22T22:35:52.328Z,18.30
2023-05-22T22:38:20.695Z,18.30
2023-05-22T22:40:50.774Z,18.30
2023-05-22T22:43:19.115Z,18.30
2023-05-22T22:45:47.635Z,18.30
2023-05-22T22:48:16.569Z,18.30
2023-05-22T22:50:46.855Z,18.30
2023-05-22T22:53:15.248Z,18.20
2023-05-22T22:55:44.309Z,18.20
2023-05-22T22:58:14.228Z,18.20
2023-05-22T23:00:42.553Z,18.20
2023-05-22T23:03:11.422Z,18.20
2023-05-22T23:05:40.051Z,18.20
2023-05-22T23:08:08.693Z,18.20
2023-05-22T23:10:37.099Z,18.10
2023-05-22T23:13:05.475Z,18.10
2023-05-22T23:15:35.575Z,18.10
2023-05-22T23:18:04.009Z,18.10
2023-05-22T23:20:32.413Z,18.10
2023-05-22T23:23:00.811Z,18.10
2023-05-22T23:25:29.217Z,18.00
2023-05-22T23:27:57.637Z,18.00
2023-05-22T23:30:25.994Z,18.00
2023-05-22T23:32:55.744Z,18.00
2023-05-22T23:35:24.203Z,17.90
2023-05-22T23:37:52.619Z,17.90
2023-05-22T23:40:20.987Z,17.90
2023-05-22T23:42:49.340Z,17.80
2023-05-22T23:45:17.660Z,17.70
2023-05-22T23:47:46.051Z,17.60
2023-05-22T23:50:15.876Z,17.60
2023-05-22T23:52:44.168Z,17.60
2023-05-22T23:55:12.502Z,17.50
2023-05-22T23:57:40.868Z,17.50
